Time;durP1;ratioP1;P1;durP2;ratioP2;P2;SDS_P1;SDS_P2;PMS_P1;PMS_P2;Temp;Humidity;BMP_temperature;BMP_pressure;BME280_temperature;BME280_humidity;BME280_pressure;Samples;Min_cycle;Max_cycle;Signal;HPM_P1;HPM_P2
2024/01/19 00:01:16;;;;;;;0.20;0.20;;;;;;;-2.22;100.00;96084.53;5043789;28;20048;-75
2024/01/19 00:04:02;;;;;;;0.30;0.30;;;;;;;-2.12;100.00;96089.53;5045857;28;20052;-76
2024/01/19 00:06:48;;;;;;;0.20;0.20;;;;;;;-2.15;100.00;96100.38;5033365;28;20044;-77
2024/01/19 00:09:34;;;;;;;0.20;0.20;;;;;;;-2.12;100.00;96102.63;5043985;28;20082;-79
2024/01/19 00:12:20;;;;;;;0.20;0.20;;;;;;;-2.09;100.00;96112.78;5047716;28;20048;-76
2024/01/19 00:15:07;;;;;;;0.20;0.20;;;;;;;-2.14;100.00;96115.13;5045289;28;20048;-75
2024/01/19 00:17:53;;;;;;;0.20;0.20;;;;;;;-2.13;100.00;96114.94;5046284;28;20139;-77
2024/01/19 00:20:39;;;;;;;0.20;0.20;;;;;;;-2.14;100.00;96118.56;5048758;28;20131;-76
2024/01/19 00:23:25;;;;;;;0.20;0.20;;;;;;;-2.29;100.00;96115.06;5045790;28;20044;-78
2024/01/19 00:26:11;;;;;;;0.20;0.20;;;;;;;-2.34;100.00;96112.16;5043700;28;20037;-77
2024/01/19 00:28:57;;;;;;;0.20;0.20;;;;;;;-2.31;100.00;96127.56;5043057;28;20036;-79
2024/01/19 00:31:45;;;;;;;0.10;0.10;;;;;;;-2.28;100.00;96127.19;5035744;28;20462;-79
2024/01/19 00:34:31;;;;;;;0.20;0.20;;;;;;;-2.40;100.00;96128.63;5044915;28;20045;-79
2024/01/19 00:37:17;;;;;;;0.17;0.17;;;;;;;-2.48;100.00;96141.78;5046995;28;20041;-76
2024/01/19 00:40:11;;;;;;;0.20;0.20;;;;;;;-2.61;100.00;96142.34;5044480;28;20029;-79
2024/01/19 00:42:57;;;;;;;0.20;0.20;;;;;;;-2.60;100.00;96147.41;5045202;28;20565;-81
2024/01/19 00:45:43;;;;;;;0.20;0.20;;;;;;;-2.61;100.00;96148.41;5044110;28;20325;-78
2024/01/19 00:48:29;;;;;;;0.20;0.20;;;;;;;-2.65;100.00;96149.72;5043520;28;20127;-78
2024/01/19 00:51:17;;;;;;;0.17;0.17;;;;;;;-2.67;100.00;96151.72;5044988;28;20040;-77
2024/01/19 00:54:03;;;;;;;0.20;0.20;;;;;;;-2.63;100.00;96158.25;5046136;28;20609;-77
2024/01/19 00:56:49;;;;;;;0.20;0.20;;;;;;;-2.59;100.00;96161.31;5043911;28;20049;-77
2024/01/19 00:59:35;;;;;;;0.20;0.20;;;;;;;-2.59;100.00;96175.22;5045656;28;20033;-78
2024/01/19 01:02:21;;;;;;;0.10;0.10;;;;;;;-2.54;100.00;96167.69;5044133;28;20056;-74
2024/01/19 01:05:07;;;;;;;0.20;0.20;;;;;;;-2.60;100.00;96155.25;5044521;28;20036;-76
2024/01/19 01:07:53;;;;;;;0.20;0.20;;;;;;;-2.52;100.00;96165.69;5044748;28;20028;-76
2024/01/19 01:10:39;;;;;;;0.20;0.20;;;;;;;-2.55;100.00;96158.19;5043485;28;20055;-76
2024/01/19 01:13:25;;;;;;;0.20;0.20;;;;;;;-2.44;100.00;96177.94;5046498;28;20050;-76
2024/01/19 01:16:11;;;;;;;0.20;0.20;;;;;;;-2.45;100.00;96178.91;5043938;28;20041;-78
2024/01/19 01:18:57;;;;;;;0.20;0.20;;;;;;;-2.42;100.00;96185.59;5044679;28;20045;-76
2024/01/19 01:21:43;;;;;;;0.20;0.20;;;;;;;-2.46;100.00;96182.53;5044626;28;20258;-78
2024/01/19 01:24:29;;;;;;;0.20;0.20;;;;;;;-2.50;100.00;96190.91;5047014;28;20056;-75
2024/01/19 01:27:15;;;;;;;0.10;0.10;;;;;;;-2.51;100.00;96195.31;5043132;28;20572;-76
2024/01/19 01:30:07;;;;;;;0.20;0.20;;;;;;;-2.47;100.00;96196.63;5044593;28;20155;-77
2024/01/19 01:32:55;;;;;;;;;;;;;;;-2.39;100.00;96208.88;5043492;28;20128;-79
2024/01/19 01:35:41;;;;;;;0.20;0.20;;;;;;;-2.45;100.00;96204.31;5031839;28;19949;-81
2024/01/19 01:38:26;;;;;;;0.20;0.20;;;;;;;-2.48;100.00;96217.78;5048789;28;20037;-78
2024/01/19 01:41:12;;;;;;;0.20;0.20;;;;;;;-2.58;100.00;96216.16;5048581;28;20045;-77
2024/01/19 01:43:59;;;;;;;0.20;0.20;;;;;;;-2.61;100.00;96236.66;5050767;28;20398;-77
2024/01/19 01:46:45;;;;;;;0.15;0.15;;;;;;;-2.79;100.00;96236.91;5048955;28;20080;-79
2024/01/19 01:49:30;;;;;;;0.20;0.20;;;;;;;-2.97;100.00;96242.38;5047989;28;20045;-77
2024/01/19 01:52:16;;;;;;;0.20;0.20;;;;;;;-2.96;100.00;96240.56;5050601;28;20044;-77
2024/01/19 01:55:02;;;;;;;0.17;0.17;;;;;;;-3.05;100.00;96249.44;5048358;28;20323;-79
2024/01/19 01:57:48;;;;;;;0.20;0.20;;;;;;;-3.19;100.00;96249.16;5048408;28;21515;-77
2024/01/19 02:00:36;;;;;;;0.20;0.20;;;;;;;-3.14;100.00;96254.69;5045010;28;20064;-76
2024/01/19 02:03:23;;;;;;;0.20;0.20;;;;;;;-3.15;100.00;96250.44;5049410;28;20054;-75
2024/01/19 02:06:09;;;;;;;0.20;0.20;;;;;;;-3.13;100.00;96260.75;5047060;28;20789;-77
2024/01/19 02:08:55;;;;;;;0.20;0.20;;;;;;;-3.09;100.00;96249.78;5047163;28;20123;-74
2024/01/19 02:11:41;;;;;;;0.20;0.20;;;;;;;-2.95;100.00;96264.00;5046653;28;20037;-80
2024/01/19 02:14:27;;;;;;;0.20;0.20;;;;;;;-2.95;100.00;96265.78;5048310;28;20036;-75
2024/01/19 02:17:12;;;;;;;0.20;0.20;;;;;;;-2.93;100.00;96267.25;5049286;28;20119;-78
2024/01/19 02:19:58;;;;;;;0.20;0.20;;;;;;;-2.90;100.00;96274.75;5037647;28;20051;-75
2024/01/19 02:22:46;;;;;;;0.20;0.20;;;;;;;-2.88;100.00;96269.34;5048107;28;20410;-77
2024/01/19 02:25:32;;;;;;;0.20;0.20;;;;;;;-2.90;100.00;96259.03;5046303;28;20051;-78
2024/01/19 02:28:18;;;;;;;0.20;0.20;;;;;;;-2.91;100.00;96272.31;5047366;28;20057;-78
2024/01/19 02:31:04;;;;;;;0.20;0.20;;;;;;;-2.87;100.00;96268.38;5047518;28;20072;-75
2024/01/19 02:33:51;;;;;;;0.20;0.20;;;;;;;-3.06;100.00;96266.94;5048979;28;20046;-75
2024/01/19 02:36:37;;;;;;;0.20;0.20;;;;;;;-3.04;100.00;96274.63;5046469;28;20230;-77
2024/01/19 02:39:23;;;;;;;0.20;0.20;;;;;;;-3.05;100.00;96276.44;5047535;28;20040;-75
2024/01/19 02:42:09;;;;;;;0.10;0.10;;;;;;;-2.97;100.00;96278.22;5051054;28;20390;-78
2024/01/19 02:44:55;;;;;;;0.10;0.10;;;;;;;-2.94;100.00;96276.09;5048140;28;20078;-76
2024/01/19 02:47:41;;;;;;;0.20;0.20;;;;;;;-2.98;100.00;96273.97;5047731;28;20068;-79
2024/01/19 02:50:27;;;;;;;0.20;0.20;;;;;;;-2.99;100.00;96283.63;5044740;28;20041;-73
2024/01/19 02:53:13;;;;;;;0.20;0.20;;;;;;;-2.95;100.00;96281.50;5049685;28;20206;-74
2024/01/19 02:56:00;;;;;;;0.20;0.20;;;;;;;-2.99;100.00;96288.03;5049672;28;20041;-74
2024/01/19 02:58:46;;;;;;;0.10;0.10;;;;;;;-3.01;100.00;96279.56;5048226;28;20099;-75
2024/01/19 03:01:32;;;;;;;0.20;0.20;;;;;;;-2.98;100.00;96281.81;5030208;28;20068;-75
2024/01/19 03:04:17;;;;;;;0.20;0.20;;;;;;;-2.92;100.00;96284.59;5049344;28;20127;-74
2024/01/19 03:07:03;;;;;;;0.20;0.20;;;;;;;-2.94;100.00;96278.72;5049872;28;20042;-78
2024/01/19 03:09:49;;;;;;;0.20;0.20;;;;;;;-2.83;100.00;96280.13;5047543;28;20055;-76
2024/01/19 03:12:36;;;;;;;0.20;0.20;;;;;;;-2.81;100.00;96283.41;5049466;28;20080;-78
2024/01/19 03:15:22;;;;;;;0.20;0.20;;;;;;;-3.01;100.00;96288.22;5031479;28;21683;-73
2024/01/19 03:18:08;;;;;;;0.20;0.20;;;;;;;-3.04;100.00;96304.25;5045901;28;20037;-76
2024/01/19 03:20:54;;;;;;;0.20;0.20;;;;;;;-3.03;100.00;96305.91;5048554;28;20048;-77
2024/01/19 03:23:39;;;;;;;0.15;0.15;;;;;;;-3.16;100.00;96288.09;5049798;28;20049;-74
2024/01/19 03:26:25;;;;;;;0.20;0.20;;;;;;;-3.17;100.00;96288.25;5046107;28;20041;-74
2024/01/19 03:29:11;;;;;;;0.20;0.20;;;;;;;-3.30;100.00;96299.22;5048831;28;20075;-74
2024/01/19 03:31:57;;;;;;;0.20;0.20;;;;;;;-3.29;100.00;96293.00;5049612;28;20041;-75
2024/01/19 03:34:43;;;;;;;0.15;0.15;;;;;;;-3.23;100.00;96294.97;5046356;28;20419;-77
2024/01/19 03:37:28;;;;;;;0.20;0.20;;;;;;;-3.24;100.00;96282.06;5047042;28;20544;-77
2024/01/19 03:40:14;;;;;;;0.10;0.10;;;;;;;-3.29;100.00;96300.88;5047656;28;20045;-74
2024/01/19 03:43:00;;;;;;;0.20;0.20;;;;;;;-3.22;100.00;96291.38;5047864;28;20296;-73
2024/01/19 03:45:46;;;;;;;0.20;0.20;;;;;;;-3.17;100.00;96293.50;5048522;28;20108;-74
2024/01/19 03:48:32;;;;;;;0.20;0.20;;;;;;;-3.14;100.00;96298.38;5045979;28;20114;-77
2024/01/19 03:51:18;;;;;;;0.20;0.20;;;;;;;-3.18;100.00;96295.31;5046315;28;20078;-79
2024/01/19 03:54:04;;;;;;;0.20;0.20;;;;;;;-3.15;100.00;96300.19;5047189;28;20134;-77
2024/01/19 03:56:49;;;;;;;0.20;0.20;;;;;;;-3.13;100.00;96308.69;5047448;28;20476;-75
2024/01/19 03:59:35;;;;;;;0.20;0.20;;;;;;;-3.28;100.00;96302.50;5031547;28;20073;-75
2024/01/19 04:02:21;;;;;;;0.20;0.20;;;;;;;-3.34;100.00;96307.59;5033333;28;20041;-77
2024/01/19 04:05:07;;;;;;;0.20;0.20;;;;;;;-3.41;100.00;96310.06;5047113;28;20051;-76
2024/01/19 04:07:53;;;;;;;0.20;0.20;;;;;;;-3.42;100.00;96318.88;5047257;28;20048;-78
2024/01/19 04:10:39;;;;;;;0.20;0.20;;;;;;;-3.36;100.00;96319.03;5030968;28;20876;-77
2024/01/19 04:13:25;;;;;;;0.20;0.20;;;;;;;-3.31;100.00;96309.88;5045645;28;20489;-76
2024/01/19 04:16:10;;;;;;;0.20;0.20;;;;;;;-3.35;100.00;96312.00;5046433;28;20128;-77
2024/01/19 04:18:56;;;;;;;0.20;0.20;;;;;;;-3.34;100.00;96324.13;5048556;28;20067;-75
2024/01/19 04:21:42;;;;;;;0.20;0.20;;;;;;;-3.31;100.00;96330.81;5047522;28;20041;-78
2024/01/19 04:24:28;;;;;;;0.20;0.20;;;;;;;-3.24;100.00;96329.16;5045270;28;20528;-75
2024/01/19 04:27:14;;;;;;;0.20;0.20;;;;;;;-3.18;100.00;96326.72;5048610;28;20518;-76
2024/01/19 04:30:00;;;;;;;0.20;0.20;;;;;;;-3.12;100.00;96327.81;5045406;28;20033;-78
2024/01/19 04:32:45;;;;;;;0.20;0.20;;;;;;;-3.08;100.00;96329.97;5046061;28;20028;-78
2024/01/19 04:35:31;;;;;;;0.20;0.20;;;;;;;-3.00;100.00;96346.63;5044803;28;20532;-76
2024/01/19 04:38:18;;;;;;;0.20;0.20;;;;;;;-2.99;100.00;96353.50;5032844;28;20049;-78
2024/01/19 04:41:04;;;;;;;0.20;0.20;;;;;;;-3.01;100.00;96340.59;5046580;28;20064;-76
2024/01/19 04:43:50;;;;;;;0.20;0.20;;;;;;;-2.95;100.00;96339.09;5047649;28;20137;-75
2024/01/19 04:46:36;;;;;;;0.20;0.20;;;;;;;-2.88;100.00;96350.53;5047695;28;20032;-76
2024/01/19 04:49:21;;;;;;;0.20;0.20;;;;;;;-2.93;100.00;96355.47;5047803;28;20283;-78
2024/01/19 04:52:07;;;;;;;0.20;0.20;;;;;;;-2.98;100.00;96348.09;5048661;28;20394;-78
2024/01/19 04:54:53;;;;;;;0.20;0.20;;;;;;;-3.10;100.00;96355.50;5042085;28;20055;-78
2024/01/19 04:57:39;;;;;;;0.20;0.20;;;;;;;-3.27;100.00;96361.69;5049094;28;20094;-78
2024/01/19 05:00:25;;;;;;;0.20;0.20;;;;;;;-3.22;100.00;96362.03;5044480;28;20368;-76
2024/01/19 05:03:11;;;;;;;0.20;0.20;;;;;;;-3.23;100.00;96360.41;5048798;28;20082;-77
2024/01/19 05:05:57;;;;;;;0.20;0.20;;;;;;;-3.16;100.00;96361.38;5048144;28;20114;-76
2024/01/19 05:08:42;;;;;;;0.20;0.20;;;;;;;-3.15;100.00;96368.25;5047048;28;20484;-75
2024/01/19 05:11:28;;;;;;;0.20;0.20;;;;;;;-3.21;100.00;96371.53;5049341;28;20051;-75
2024/01/19 05:14:14;;;;;;;0.20;0.20;;;;;;;-3.38;100.00;96372.50;5045384;28;20550;-76
2024/01/19 05:17:00;;;;;;;0.20;0.20;;;;;;;-3.52;100.00;96367.94;5048727;28;20122;-80
2024/01/19 05:19:46;;;;;;;0.20;0.20;;;;;;;-3.66;100.00;96362.38;5048277;28;20627;-78
2024/01/19 05:22:32;;;;;;;0.20;0.20;;;;;;;-3.71;100.00;96358.59;5046899;28;20110;-76
2024/01/19 05:25:18;;;;;;;0.13;0.13;;;;;;;-3.66;100.00;96374.63;5047481;28;20057;-77
2024/01/19 05:28:04;;;;;;;0.20;0.20;;;;;;;-3.57;100.00;96381.50;5047610;28;20056;-77
2024/01/19 05:30:50;;;;;;;0.20;0.20;;;;;;;-3.52;100.00;96389.69;5046640;28;20094;-75
2024/01/19 05:33:36;;;;;;;0.20;0.20;;;;;;;-3.56;100.00;96379.72;5048760;28;20090;-76
2024/01/19 05:36:23;;;;;;;0.20;0.20;;;;;;;-3.50;100.00;96386.88;5047771;28;20492;-76
2024/01/19 05:39:09;;;;;;;0.20;0.20;;;;;;;-3.55;100.00;96387.41;5031907;28;20045;-75
2024/01/19 05:41:57;;;;;;;0.20;0.20;;;;;;;-3.62;100.00;96388.19;5046394;28;20421;-76
2024/01/19 05:44:45;;;;;;;0.20;0.20;;;;;;;-3.63;100.00;96386.56;5045782;28;20103;-75
2024/01/19 05:47:30;;;;;;;0.30;0.30;;;;;;;-3.58;100.00;96390.34;5046819;28;20456;-78
2024/01/19 05:50:16;;;;;;;0.20;0.20;;;;;;;-3.53;100.00;96393.28;5047366;28;20128;-78
2024/01/19 05:53:02;;;;;;;0.17;0.17;;;;;;;-3.46;100.00;96396.06;5047870;28;20043;-79
2024/01/19 05:55:48;;;;;;;0.20;0.20;;;;;;;-3.44;100.00;96402.75;5038146;28;20033;-79
2024/01/19 05:58:35;;;;;;;0.20;0.20;;;;;;;-3.44;100.00;96401.94;5041302;28;20481;-77
2024/01/19 06:01:21;;;;;;;0.20;0.20;;;;;;;-3.39;100.00;96407.53;5044715;28;20506;-73
2024/01/19 06:04:07;;;;;;;0.20;0.20;;;;;;;-3.51;100.00;96408.81;5046234;28;20076;-78
2024/01/19 06:06:53;;;;;;;0.20;0.20;;;;;;;-3.41;100.00;96412.09;5045634;28;20117;-78
2024/01/19 06:09:39;;;;;;;0.20;0.20;;;;;;;-3.36;100.00;96421.09;5043968;28;20069;-76
2024/01/19 06:12:25;;;;;;;0.20;0.20;;;;;;;-3.29;100.00;96428.28;5048075;28;20194;-75
2024/01/19 06:15:10;;;;;;;0.20;0.20;;;;;;;-3.28;100.00;96433.34;5045242;28;20040;-77
2024/01/19 06:17:56;;;;;;;0.20;0.20;;;;;;;-3.28;100.00;96432.53;5045135;28;20028;-76
2024/01/19 06:20:45;;;;;;;0.20;0.20;;;;;;;-3.22;100.00;96445.78;5046981;28;20043;-76
2024/01/19 06:23:33;;;;;;;0.20;0.20;;;;;;;-3.22;100.00;96453.66;5054092;28;20493;-77
2024/01/19 06:26:19;;;;;;;0.20;0.20;;;;;;;-3.21;100.00;96452.66;5049310;28;20133;-78
2024/01/19 06:29:05;;;;;;;0.10;0.10;;;;;;;-3.30;100.00;96452.81;5049415;28;20033;-75
2024/01/19 06:31:51;;;;;;;0.20;0.20;;;;;;;-3.38;100.00;96449.22;5049899;28;20043;-78
2024/01/19 06:34:39;;;;;;;0.20;0.20;;;;;;;-3.30;100.00;96460.69;5039374;28;20126;-76
2024/01/19 06:37:25;;;;;;;0.20;0.20;;;;;;;-3.26;100.00;96460.22;5050452;28;20037;-76
2024/01/19 06:40:11;;;;;;;0.20;0.20;;;;;;;-3.24;100.00;96463.47;5049800;28;20044;-77
2024/01/19 06:43:00;;;;;;;0.20;0.20;;;;;;;-3.25;100.00;96468.88;5049299;28;20124;-75
2024/01/19 06:45:45;;;;;;;0.20;0.20;;;;;;;-3.17;100.00;96476.72;5049163;28;20924;-76
2024/01/19 06:48:31;;;;;;;0.20;0.20;;;;;;;-3.19;100.00;96478.66;5051766;28;20313;-76
2024/01/19 06:51:23;;;;;;;0.20;0.20;;;;;;;-3.12;100.00;96483.09;5047185;28;20044;-75
2024/01/19 06:54:09;;;;;;;0.20;0.20;;;;;;;-3.08;100.00;96494.91;5045941;28;20500;-75
2024/01/19 06:56:55;;;;;;;0.20;0.20;;;;;;;-3.05;100.00;96493.75;5049150;28;20070;-76
2024/01/19 06:59:41;;;;;;;0.20;0.20;;;;;;;-2.93;100.00;96489.00;5051134;28;20071;-76
2024/01/19 07:02:30;;;;;;;0.20;0.20;;;;;;;-2.85;100.00;96502.94;5050192;28;20041;-76
2024/01/19 07:05:16;;;;;;;0.20;0.20;;;;;;;-2.82;100.00;96499.97;5045171;28;20468;-77
2024/01/19 07:08:02;;;;;;;0.20;0.20;;;;;;;-2.77;100.00;96514.38;5050131;28;20127;-75
2024/01/19 07:10:48;;;;;;;0.20;0.20;;;;;;;-2.78;100.00;96521.44;5048454;28;20107;-75
2024/01/19 07:13:34;;;;;;;0.20;0.20;;;;;;;-2.85;100.00;96516.03;5040025;28;20123;-75
2024/01/19 07:16:21;;;;;;;0.20;0.20;;;;;;;-3.27;100.00;96513.50;5048502;28;20497;-76
2024/01/19 07:19:07;;;;;;;0.20;0.20;;;;;;;-3.22;100.00;96528.75;5046985;28;20556;-77
2024/01/19 07:21:54;;;;;;;0.10;0.10;;;;;;;-3.12;100.00;96535.47;5046863;28;20119;-76
2024/01/19 07:24:39;;;;;;;0.20;0.20;;;;;;;-3.02;100.00;96537.94;5049482;28;20101;-74
2024/01/19 07:27:25;;;;;;;0.20;0.20;;;;;;;-3.04;100.00;96544.31;5046780;28;20146;-74
2024/01/19 07:30:11;;;;;;;0.20;0.20;;;;;;;-3.02;100.00;96548.41;5047656;28;20094;-76
2024/01/19 07:32:57;;;;;;;0.20;0.20;;;;;;;-3.03;100.00;96538.94;5048613;28;20036;-75
2024/01/19 07:35:43;;;;;;;0.20;0.20;;;;;;;-2.90;100.00;96538.44;5048089;28;20353;-74
2024/01/19 07:38:29;;;;;;;0.20;0.20;;;;;;;-2.88;100.00;96539.09;5049878;28;20321;-75
2024/01/19 07:41:15;;;;;;;0.10;0.10;;;;;;;-2.82;100.00;96554.97;5051571;28;20070;-75
2024/01/19 07:44:01;;;;;;;0.20;0.20;;;;;;;-2.76;100.00;96553.50;5051445;28;20074;-76
2024/01/19 07:46:47;;;;;;;0.20;0.20;;;;;;;-2.69;100.00;96558.91;5046274;28;20155;-79
2024/01/19 07:49:32;;;;;;;0.20;0.20;;;;;;;-2.62;100.00;96563.34;5048198;28;20046;-77
2024/01/19 07:52:18;;;;;;;0.20;0.20;;;;;;;-2.56;100.00;96569.75;5046239;28;20589;-76
2024/01/19 07:55:05;;;;;;;0.20;0.20;;;;;;;-2.49;100.00;96580.34;5048134;28;20374;-76
2024/01/19 07:57:53;;;;;;;0.20;0.20;;;;;;;-2.50;100.00;96581.34;5049479;28;20419;-75
2024/01/19 08:00:39;;;;;;;0.20;0.20;;;;;;;-2.46;100.00;96588.72;5045959;28;20432;-76
2024/01/19 08:03:25;;;;;;;0.20;0.20;;;;;;;-2.40;100.00;96584.66;5048411;28;20470;-76
2024/01/19 08:06:11;;;;;;;0.20;0.20;;;;;;;-2.33;100.00;96596.94;5045727;28;20040;-77
2024/01/19 08:08:57;;;;;;;0.20;0.20;;;;;;;-2.32;100.00;96595.94;5044824;28;20549;-77
2024/01/19 08:11:42;;;;;;;0.20;0.20;;;;;;;-2.41;100.00;96596.94;5047162;28;20123;-76
2024/01/19 08:14:28;;;;;;;0.20;0.20;;;;;;;-2.37;100.00;96602.66;5044574;28;20071;-74
2024/01/19 08:17:14;;;;;;;0.20;0.20;;;;;;;-2.32;100.00;96603.00;5047262;28;20044;-76
2024/01/19 08:20:00;;;;;;;0.15;0.15;;;;;;;-2.30;100.00;96606.25;5047517;28;20167;-76
2024/01/19 08:22:46;;;;;;;0.20;0.20;;;;;;;-2.28;100.00;96615.59;5048161;28;20206;-76
2024/01/19 08:25:32;;;;;;;0.20;0.20;;;;;;;-2.29;100.00;96615.75;5045489;28;20074;-78
2024/01/19 08:28:18;;;;;;;0.20;0.20;;;;;;;-2.30;100.00;96627.22;5047709;28;20040;-74
2024/01/19 08:31:04;;;;;;;0.20;0.20;;;;;;;-2.20;100.00;96621.81;5046352;28;20607;-75
2024/01/19 08:33:50;;;;;;;0.20;0.20;;;;;;;-2.07;100.00;96625.56;5046486;28;20253;-75
2024/01/19 08:36:40;;;;;;;0.20;0.20;;;;;;;-1.78;100.00;96635.53;5048177;28;20041;-77
2024/01/19 08:39:26;;;;;;;0.20;0.20;;;;;;;-1.67;100.00;96634.34;5043997;28;20336;-74
2024/01/19 08:42:11;;;;;;;0.20;0.20;;;;;;;-1.59;100.00;96639.59;5046239;28;20044;-75
2024/01/19 08:44:58;;;;;;;0.20;0.20;;;;;;;-1.69;100.00;96636.34;5044977;28;20409;-74
2024/01/19 08:47:43;;;;;;;0.20;0.20;;;;;;;-1.57;100.00;96640.22;5047028;28;20040;-75
2024/01/19 08:50:29;;;;;;;0.20;0.20;;;;;;;-1.58;100.00;96648.28;5047461;28;20116;-76
2024/01/19 08:53:15;;;;;;;0.20;0.20;;;;;;;-1.79;100.00;96654.91;5043901;28;20044;-77
2024/01/19 08:56:01;;;;;;;0.20;0.20;;;;;;;-1.69;100.00;96659.97;5046059;28;20039;-78
2024/01/19 08:58:47;;;;;;;0.20;0.20;;;;;;;-1.73;100.00;96663.88;5045420;28;20115;-76
2024/01/19 09:01:34;;;;;;;0.20;0.20;;;;;;;-1.71;100.00;96670.63;5046208;28;20511;-75
2024/01/19 09:04:20;;;;;;;0.20;0.20;;;;;;;-1.64;100.00;96669.94;5045037;28;20035;-76
2024/01/19 09:07:06;;;;;;;0.20;0.20;;;;;;;-1.71;100.00;96677.69;5047181;28;20147;-75
2024/01/19 09:09:52;;;;;;;0.20;0.20;;;;;;;-1.70;100.00;96681.94;5047526;28;20128;-78
2024/01/19 09:12:37;;;;;;;0.20;0.20;;;;;;;-1.78;100.00;96684.56;5048007;28;20064;-76
2024/01/19 09:15:23;;;;;;;0.20;0.20;;;;;;;-1.79;100.00;96691.63;5046837;28;20123;-75
2024/01/19 09:18:09;;;;;;;0.20;0.20;;;;;;;-1.68;100.00;96693.06;5046982;28;20037;-75
2024/01/19 09:20:55;;;;;;;0.20;0.20;;;;;;;-1.62;100.00;96715.22;5047341;28;20079;-75
2024/01/19 09:23:41;;;;;;;0.20;0.20;;;;;;;-1.67;100.00;96707.84;5046537;28;20041;-76
2024/01/19 09:26:27;;;;;;;0.20;0.20;;;;;;;-1.48;100.00;96720.63;5048087;28;20389;-76
2024/01/19 09:29:13;;;;;;;0.20;0.20;;;;;;;-1.45;100.00;96715.03;5044789;28;20037;-75
2024/01/19 09:31:58;;;;;;;0.30;0.30;;;;;;;-1.46;100.00;96720.44;5044795;28;20134;-77
2024/01/19 09:34:45;;;;;;;0.20;0.20;;;;;;;-1.43;100.00;96723.53;5030513;28;20118;-76
2024/01/19 09:37:34;;;;;;;0.20;0.20;;;;;;;-1.36;100.00;96720.25;5047167;28;20061;-75
2024/01/19 09:40:21;;;;;;;0.20;0.20;;;;;;;-1.35;100.00;96727.97;5047084;28;20041;-76
2024/01/19 09:43:07;;;;;;;0.13;0.13;;;;;;;-1.39;100.00;96731.09;5045663;28;20073;-78
2024/01/19 09:45:55;;;;;;;0.20;0.20;;;;;;;-1.46;100.00;96723.88;5045253;28;20396;-76
2024/01/19 09:48:53;;;;;;;0.20;0.20;;;;;;;-1.24;100.00;96729.44;5032817;28;20056;-75
2024/01/19 09:51:59;;;;;;;0.20;0.20;;;;;;;-1.12;100.00;96734.13;5042402;28;20053;-78
2024/01/19 09:54:44;;;;;;;0.20;0.20;;;;;;;-0.89;100.00;96741.28;5038027;28;20090;-77
2024/01/19 09:57:32;;;;;;;0.20;0.20;;;;;;;-1.04;100.00;96740.34;5044521;28;20040;-78
2024/01/19 10:00:19;;;;;;;0.20;0.20;;;;;;;-1.07;100.00;96731.00;5050426;28;20132;-76
2024/01/19 10:03:09;;;;;;;0.20;0.20;;;;;;;-0.88;100.00;96756.88;5048946;28;20041;-75
2024/01/19 10:05:55;;;;;;;0.30;0.30;;;;;;;-0.64;100.00;96763.84;5048215;28;20044;-76
2024/01/19 10:08:43;;;;;;;0.20;0.20;;;;;;;-0.78;100.00;96767.19;5050048;28;20032;-76
2024/01/19 10:11:30;;;;;;;0.20;0.20;;;;;;;-0.99;100.00;96769.56;5031750;28;20041;-79
2024/01/19 10:14:18;;;;;;;0.20;0.20;;;;;;;-1.14;100.00;96778.16;5040019;28;20087;-76
2024/01/19 10:17:04;;;;;;;0.20;0.20;;;;;;;-0.86;100.00;96783.84;5048050;28;20040;-76
2024/01/19 10:19:51;;;;;;;0.20;0.20;;;;;;;-0.68;100.00;96783.59;5051830;28;20060;-78
2024/01/19 10:22:37;;;;;;;0.20;0.20;;;;;;;-0.85;100.00;96785.47;5049575;28;20037;-78
2024/01/19 10:25:23;;;;;;;0.20;0.20;;;;;;;-0.63;100.00;96786.50;5046608;28;20543;-76
2024/01/19 10:28:28;;;;;;;0.20;0.20;;;;;;;-0.65;100.00;96791.13;5050344;28;20516;-76
2024/01/19 10:31:21;;;;;;;0.20;0.20;;;;;;;-0.33;100.00;96792.78;5049688;28;20122;-77
2024/01/19 10:34:18;;;;;;;0.20;0.20;;;;;;;-0.27;100.00;96796.56;5047853;28;20110;-77
2024/01/19 10:37:04;;;;;;;0.20;0.20;;;;;;;-0.07;100.00;96796.94;5050637;28;20032;-76
2024/01/19 10:39:50;;;;;;;0.20;0.20;;;;;;;-0.04;100.00;96807.13;5047168;28;20037;-76
2024/01/19 10:42:39;;;;;;;0.20;0.20;;;;;;;-0.15;100.00;96816.22;5050900;28;20119;-75
2024/01/19 10:45:31;;;;;;;0.20;0.20;;;;;;;-0.28;100.00;96818.59;5047605;28;20052;-75
2024/01/19 10:48:25;;;;;;;0.20;0.20;;;;;;;-0.51;100.00;96818.53;5047971;28;20037;-76
2024/01/19 10:51:11;;;;;;;0.20;0.20;;;;;;;-0.63;100.00;96822.50;5048290;28;20519;-75
2024/01/19 10:54:02;;;;;;;0.20;0.20;;;;;;;-0.59;100.00;96811.50;5048064;28;20036;-75
2024/01/19 10:56:48;;;;;;;0.20;0.20;;;;;;;-0.55;100.00;96819.84;5046165;28;20043;-78
2024/01/19 10:59:34;;;;;;;0.20;0.20;;;;;;;-0.79;100.00;96819.91;5049318;28;20036;-76
2024/01/19 11:02:21;;;;;;;0.20;0.20;;;;;;;-0.76;100.00;96827.50;5036336;28;20858;-78
2024/01/19 11:05:07;;;;;;;0.20;0.20;;;;;;;-0.77;100.00;96824.03;5048738;28;20048;-77
2024/01/19 11:07:55;;;;;;;0.20;0.20;;;;;;;-0.72;100.00;96832.22;5050736;28;20045;-78
2024/01/19 11:10:47;;;;;;;0.20;0.20;;;;;;;-0.63;100.00;96827.75;5049573;28;20048;-77
2024/01/19 11:13:43;;;;;;;;;;;;;;;-0.65;100.00;96829.75;5049159;28;20044;-78
2024/01/19 11:16:39;;;;;;;0.20;0.20;;;;;;;-0.65;100.00;96824.47;5047625;28;19927;-77
2024/01/19 11:19:25;;;;;;;0.20;0.20;;;;;;;-0.51;100.00;96813.25;5047183;28;20496;-75
2024/01/19 11:22:11;;;;;;;0.20;0.20;;;;;;;-0.45;100.00;96825.75;5046321;28;20052;-76
2024/01/19 11:25:13;;;;;;;0.20;0.20;;;;;;;-0.39;100.00;96829.47;5046188;28;20143;-76
2024/01/19 11:28:03;;;;;;;;;;;;;;;-0.58;100.00;96833.34;5048924;28;20050;-77
2024/01/19 11:31:05;;;;;;;0.20;0.20;;;;;;;-0.42;100.00;96830.66;5033099;28;19928;-75
2024/01/19 11:33:54;;;;;;;0.20;0.20;;;;;;;-0.22;100.00;96838.13;5047439;28;20044;-77
2024/01/19 11:36:40;;;;;;;0.20;0.20;;;;;;;-0.33;100.00;96845.41;5044848;28;20500;-75
2024/01/19 11:39:43;;;;;;;0.20;0.20;;;;;;;-0.18;100.00;96842.88;5048432;28;20508;-74
2024/01/19 11:42:35;;;;;;;0.20;0.20;;;;;;;-0.17;100.00;96851.56;5048428;28;20985;-77
2024/01/19 11:45:42;;;;;;;0.20;0.20;;;;;;;-0.02;100.00;96847.22;5045665;28;20044;-75
2024/01/19 11:48:44;;;;;;;0.20;0.20;;;;;;;0.24;100.00;96850.38;5048498;28;20129;-74
2024/01/19 11:51:34;;;;;;;0.20;0.20;;;;;;;0.18;100.00;96853.69;5044845;28;20053;-77
2024/01/19 11:54:27;;;;;;;0.20;0.20;;;;;;;0.14;100.00;96852.41;5047144;28;20123;-76
2024/01/19 11:57:25;;;;;;;0.20;0.20;;;;;;;0.28;100.00;96850.84;5048263;28;20116;-76
2024/01/19 12:00:14;;;;;;;0.20;0.20;;;;;;;0.13;100.00;96855.22;5045532;28;20068;-76
2024/01/19 12:03:00;;;;;;;0.20;0.20;;;;;;;0.14;100.00;96870.00;5049198;28;20671;-76
2024/01/19 12:05:48;;;;;;;0.20;0.20;;;;;;;0.24;100.00;96874.06;5047049;28;20520;-76
2024/01/19 12:08:34;;;;;;;0.20;0.20;;;;;;;0.33;100.00;96874.03;5046344;28;20087;-78
2024/01/19 12:11:21;;;;;;;0.20;0.20;;;;;;;0.13;100.00;96881.53;5047818;28;20044;-76
2024/01/19 12:14:09;;;;;;;0.20;0.20;;;;;;;0.03;100.00;96867.78;5046029;28;20451;-75
2024/01/19 12:16:58;;;;;;;0.20;0.20;;;;;;;0.02;100.00;96874.03;5028398;28;20040;-75
2024/01/19 12:19:44;;;;;;;0.20;0.20;;;;;;;-0.13;100.00;96879.19;5047526;28;20040;-76
2024/01/19 12:22:31;;;;;;;0.20;0.20;;;;;;;-0.13;100.00;96879.19;5030004;28;20055;-78
2024/01/19 12:25:18;;;;;;;0.20;0.20;;;;;;;-0.14;100.00;96882.81;5047730;28;20064;-76
2024/01/19 12:28:06;;;;;;;0.20;0.20;;;;;;;-0.17;100.00;96876.06;5047134;28;20050;-77
2024/01/19 12:30:53;;;;;;;0.20;0.20;;;;;;;-0.15;100.00;96878.56;5035000;28;21053;-77
2024/01/19 12:33:38;;;;;;;0.20;0.20;;;;;;;-0.31;100.00;96875.00;5045639;28;20045;-75
2024/01/19 12:36:28;;;;;;;0.20;0.20;;;;;;;-0.13;100.00;96871.31;5043453;28;20068;-78
2024/01/19 12:39:21;;;;;;;0.20;0.20;;;;;;;-0.10;100.00;96871.75;5046897;28;20045;-77
2024/01/19 12:42:08;;;;;;;0.20;0.20;;;;;;;0.04;100.00;96870.22;5048313;28;20044;-76
2024/01/19 12:44:56;;;;;;;0.30;0.30;;;;;;;0.08;100.00;96866.28;5043862;28;20040;-77
2024/01/19 12:47:47;;;;;;;0.20;0.20;;;;;;;0.22;100.00;96860.25;5045476;28;20045;-76
2024/01/19 12:50:32;;;;;;;0.20;0.20;;;;;;;0.38;100.00;96850.59;5047788;28;20055;-76
2024/01/19 12:53:18;;;;;;;0.20;0.20;;;;;;;0.35;100.00;96856.22;5046016;28;20392;-76
2024/01/19 12:56:32;;;;;;;0.20;0.20;;;;;;;0.41;100.00;96860.81;5044075;28;20460;-77
2024/01/19 12:59:22;;;;;;;0.20;0.20;;;;;;;0.17;100.00;96857.34;5031062;28;20559;-76